createdAt,value
2022-10-14T00:01:27.072Z,101441.25
2022-10-14T00:03:55.929Z,101455.63
2022-10-14T00:06:26.889Z,101448.16
2022-10-14T00:08:56.869Z,101450.06
2022-10-14T00:11:26.987Z,101419.28
2022-10-14T00:13:56.658Z,101450.22
2022-10-14T00:16:28.670Z,101444.13
2022-10-14T00:18:57.839Z,101446.34
2022-10-14T00:21:27.321Z,101441.59
2022-10-14T00:23:57.886Z,101434.19
2022-10-14T00:26:29.583Z,101427.75
2022-10-14T00:28:59.332Z,101433.31
2022-10-14T00:31:28.133Z,101431.63
2022-10-14T00:33:56.902Z,101436.34
2022-10-14T00:36:26.177Z,101447.97
2022-10-14T00:38:56.600Z,101433.44
2022-10-14T00:41:27.131Z,101414.22
2022-10-14T00:43:59.393Z,101445.44
2022-10-14T00:46:29.133Z,101457.09
2022-10-14T00:49:06.464Z,101452.00
2022-10-14T00:51:36.426Z,101443.25
2022-10-14T00:54:06.294Z,101426.53
2022-10-14T00:56:36.408Z,101439.53
2022-10-14T00:59:08.501Z,101427.72
2022-10-14T01:01:36.905Z,101436.47
2022-10-14T01:04:05.602Z,101430.06
2022-10-14T01:06:47.990Z,101424.50
2022-10-14T01:09:27.258Z,101416.56
2022-10-14T01:12:27.641Z,101417.09
2022-10-14T01:14:59.999Z,101416.75
2022-10-14T01:17:36.907Z,101417.09
2022-10-14T01:20:28.915Z,101422.81
2022-10-14T01:23:11.280Z,101416.06
2022-10-14T01:25:53.115Z,101419.25
2022-10-14T01:28:29.361Z,101413.00
2022-10-14T01:31:03.978Z,101397.00
2022-10-14T01:33:38.687Z,101407.09
2022-10-14T01:36:12.371Z,101404.25
2022-10-14T01:38:46.195Z,101407.94
2022-10-14T01:41:21.031Z,101406.09
2022-10-14T01:43:53.261Z,101403.56
2022-10-14T01:46:26.342Z,101399.19
2022-10-14T01:49:07.003Z,101381.63
2022-10-14T01:51:40.958Z,101397.00
2022-10-14T01:54:16.251Z,101412.03
2022-10-14T01:56:48.206Z,101367.63
2022-10-14T01:59:19.856Z,101406.09
2022-10-14T02:01:49.723Z,101398.19
2022-10-14T02:04:20.038Z,101391.09
2022-10-14T02:06:52.191Z,101391.09
2022-10-14T02:09:29.187Z,101382.00
2022-10-14T02:12:11.862Z,101375.22
2022-10-14T02:14:49.518Z,101372.53
2022-10-14T02:17:24.443Z,101374.56
2022-10-14T02:19:59.684Z,101375.41
2022-10-14T02:22:34.015Z,101372.19
2022-10-14T02:25:10.988Z,101365.09
2022-10-14T02:27:42.815Z,101357.00
2022-10-14T02:30:13.113Z,101374.56
2022-10-14T02:32:44.118Z,101370.84
2022-10-14T02:35:17.272Z,101345.19
2022-10-14T02:37:49.908Z,101357.00
2022-10-14T02:40:23.454Z,101359.88
2022-10-14T02:42:51.858Z,101357.66
2022-10-14T02:45:21.230Z,101363.22
2022-10-14T02:47:50.937Z,101362.91
2022-10-14T02:50:19.558Z,101363.41
2022-10-14T02:52:48.327Z,101361.72
2022-10-14T02:55:16.722Z,101354.78
2022-10-14T02:57:45.721Z,101355.63
2022-10-14T03:00:15.166Z,101351.94
2022-10-14T03:02:44.507Z,101353.28
2022-10-14T03:05:16.170Z,101342.16
2022-10-14T03:07:45.128Z,101341.16
2022-10-14T03:10:15.724Z,101346.53
2022-10-14T03:12:44.078Z,101342.81
2022-10-14T03:15:21.068Z,101342.50
2022-10-14T03:17:51.002Z,101339.47
2022-10-14T03:20:25.771Z,101344.53
2022-10-14T03:22:57.868Z,101331.06
2022-10-14T03:25:26.440Z,101333.75
2022-10-14T03:28:01.436Z,101326.50
2022-10-14T03:30:49.255Z,101332.91
2022-10-14T03:33:31.921Z,101324.66
2022-10-14T03:36:18.454Z,101322.13
2022-10-14T03:38:51.382Z,101319.94
2022-10-14T03:41:42.978Z,101332.41
2022-10-14T03:44:13.410Z,101316.22
2022-10-14T03:46:47.523Z,101317.56
2022-10-14T03:49:15.835Z,101314.19
2022-10-14T03:51:46.253Z,101303.06
2022-10-14T03:54:23.507Z,101314.38
2022-10-14T03:56:52.117Z,101305.75
2022-10-14T03:59:22.000Z,101311.16
2022-10-14T04:01:53.618Z,101308.28
2022-10-14T04:04:25.771Z,101302.91
2022-10-14T04:06:55.879Z,101299.69
2022-10-14T04:09:24.296Z,101298.84
2022-10-14T04:11:52.517Z,101309.63
2022-10-14T04:14:43.436Z,101307.13
2022-10-14T04:17:12.316Z,101308.97
2022-10-14T04:19:40.583Z,101315.53
2022-10-14T04:22:11.530Z,101315.19
2022-10-14T04:24:40.385Z,101313.00
2022-10-14T04:27:09.502Z,101309.28
2022-10-14T04:29:48.376Z,101306.75
2022-10-14T04:32:26.720Z,101309.44
2022-10-14T04:34:56.486Z,101312.13
2022-10-14T04:37:29.234Z,101306.75
2022-10-14T04:40:20.555Z,101309.41
2022-10-14T04:42:49.244Z,101278.03
2022-10-14T04:45:25.348Z,101309.41
2022-10-14T04:48:00.456Z,101303.19
2022-10-14T04:50:29.159Z,101311.09
2022-10-14T04:53:31.171Z,101312.97
2022-10-14T04:56:14.526Z,101310.44
2022-10-14T04:58:52.925Z,101295.72
2022-10-14T05:01:22.409Z,101305.03
2022-10-14T05:03:51.407Z,101300.34
2022-10-14T05:06:20.319Z,101296.78
2022-10-14T05:08:54.050Z,101295.78
2022-10-14T05:11:23.139Z,101291.88
2022-10-14T05:13:56.299Z,101289.72
2022-10-14T05:16:26.968Z,101299.78
2022-10-14T05:18:55.357Z,101305.88
2022-10-14T05:21:26.167Z,101304.88
2022-10-14T05:24:12.200Z,101297.25
2022-10-14T05:26:41.846Z,101292.88
2022-10-14T05:29:13.242Z,101296.25
2022-10-14T05:31:42.336Z,101304.50
2022-10-14T05:34:49.147Z,101290.34
2022-10-14T05:37:36.214Z,101299.94
2022-10-14T05:40:07.045Z,101296.25
2022-10-14T05:42:37.702Z,101293.34
2022-10-14T05:45:07.061Z,101296.06
2022-10-14T05:47:38.742Z,101294.03
2022-10-14T05:50:15.924Z,101286.13
2022-10-14T05:52:46.363Z,101297.41
2022-10-14T05:55:21.634Z,101294.72
2022-10-14T05:57:56.325Z,101293.56
2022-10-14T06:00:28.108Z,101286.31
2022-10-14T06:03:03.720Z,101278.09
2022-10-14T06:05:32.389Z,101275.22
2022-10-14T06:08:00.669Z,101275.22
2022-10-14T06:10:30.385Z,101277.09
2022-10-14T06:12:58.753Z,101280.06
2022-10-14T06:15:28.353Z,101270.69
2022-10-14T06:17:57.550Z,101262.44
2022-10-14T06:20:27.208Z,101264.44
2022-10-14T06:22:55.550Z,101279.09
2022-10-14T06:25:23.849Z,101287.50
2022-10-14T06:27:53.698Z,101288.34
2022-10-14T06:30:22.552Z,101296.63
2022-10-14T06:32:54.208Z,101302.03
2022-10-14T06:35:22.514Z,101289.56
2022-10-14T06:37:52.219Z,101302.03
2022-10-14T06:40:21.213Z,101295.59
2022-10-14T06:42:49.663Z,101298.81
2022-10-14T06:45:21.197Z,101299.47
2022-10-14T06:47:49.428Z,101303.88
2022-10-14T06:50:17.654Z,101333.72
2022-10-14T06:52:46.474Z,101326.66
2022-10-14T06:55:15.130Z,101327.34
2022-10-14T06:57:43.561Z,101321.25
2022-10-14T07:00:12.786Z,101290.19
2022-10-14T07:02:42.827Z,101326.97
2022-10-14T07:05:11.450Z,101299.31
2022-10-14T07:07:39.749Z,101339.47
2022-10-14T07:10:08.655Z,101336.25
2022-10-14T07:12:37.380Z,101340.16
2022-10-14T07:15:07.733Z,101333.25
2022-10-14T07:17:36.149Z,101344.38
2022-10-14T07:20:06.571Z,101347.59
2022-10-14T07:22:38.760Z,101340.03
2022-10-14T07:25:08.705Z,101345.06
2022-10-14T07:27:37.114Z,101339.50
2022-10-14T07:30:06.938Z,101349.09
2022-10-14T07:32:37.981Z,101353.31
2022-10-14T07:35:08.449Z,101351.31
2022-10-14T07:37:38.362Z,101358.72
2022-10-14T07:40:07.718Z,101361.44
2022-10-14T07:42:36.086Z,101354.66
2022-10-14T07:45:04.812Z,101357.03
2022-10-14T07:47:33.927Z,101351.97
2022-10-14T07:50:02.716Z,101354.19
2022-10-14T07:52:32.445Z,101343.72
2022-10-14T07:55:00.617Z,101359.41
2022-10-14T07:57:29.744Z,101358.88
2022-10-14T07:59:58.283Z,101358.72
2022-10-14T08:02:26.671Z,101364.63
2022-10-14T08:05:04.103Z,101363.44
2022-10-14T08:07:43.107Z,101366.97
2022-10-14T08:10:11.329Z,101369.34
2022-10-14T08:12:39.735Z,101363.44
2022-10-14T08:15:08.668Z,101367.47
2022-10-14T08:17:37.016Z,101377.09
2022-10-14T08:20:05.876Z,101377.56
2022-10-14T08:22:34.216Z,101376.75
2022-10-14T08:25:03.837Z,101381.78
2022-10-14T08:27:32.189Z,101382.13
2022-10-14T08:30:00.338Z,101375.53
2022-10-14T08:32:28.614Z,101382.28
2022-10-14T08:34:56.941Z,101376.88
2022-10-14T08:37:25.199Z,101389.19
2022-10-14T08:39:53.497Z,101381.94
2022-10-14T08:42:46.089Z,101386.16
2022-10-14T08:45:19.941Z,101354.31
2022-10-14T08:47:48.872Z,101388.03
2022-10-14T08:50:28.993Z,101385.66
2022-10-14T08:53:00.633Z,101389.88
2022-10-14T08:55:34.932Z,101391.03
2022-10-14T08:58:11.417Z,101392.00
2022-10-14T09:00:42.769Z,101385.75
2022-10-14T09:03:19.415Z,101388.16
2022-10-14T09:05:54.980Z,101399.44
2022-10-14T09:08:30.929Z,101400.75
2022-10-14T09:11:00.007Z,101398.56
2022-10-14T09:13:36.491Z,101399.91
2022-10-14T09:16:09.796Z,101396.84
2022-10-14T09:18:41.905Z,101401.72
2022-10-14T09:21:40.347Z,101402.06
2022-10-14T09:24:19.027Z,101399.84
2022-10-14T09:26:52.106Z,101380.47
2022-10-14T09:29:27.230Z,101397.13
2022-10-14T09:31:59.158Z,101398.81
2022-10-14T09:34:32.667Z,101403.19
2022-10-14T09:37:21.422Z,101401.69
2022-10-14T09:39:51.150Z,101421.13
2022-10-14T09:42:22.641Z,101395.66
2022-10-14T09:45:10.920Z,101427.03
2022-10-14T09:47:47.885Z,101421.63
2022-10-14T09:50:24.156Z,101410.56
2022-10-14T09:53:01.619Z,101410.38
2022-10-14T09:55:30.950Z,101410.84
2022-10-14T09:58:05.358Z,101409.47
2022-10-14T10:00:37.992Z,101403.91
2022-10-14T10:03:07.761Z,101411.00
2022-10-14T10:05:37.400Z,101404.38
2022-10-14T10:08:13.698Z,101414.84
2022-10-14T10:10:43.510Z,101413.63
2022-10-14T10:13:32.784Z,101408.88
2022-10-14T10:16:03.845Z,101410.56
2022-10-14T10:18:32.250Z,101403.94
2022-10-14T10:21:07.669Z,101399.22
2022-10-14T10:23:37.594Z,101391.75
2022-10-14T10:26:18.607Z,101385.81
2022-10-14T10:28:48.061Z,101371.06
2022-10-14T10:31:35.319Z,101383.97
2022-10-14T10:34:16.203Z,101383.94
2022-10-14T10:36:50.907Z,101384.56
2022-10-14T10:39:28.110Z,101385.31
2022-10-14T10:42:06.217Z,101385.91
2022-10-14T10:45:08.411Z,101390.88
2022-10-14T10:47:45.737Z,101377.88
2022-10-14T10:50:34.015Z,101379.13
2022-10-14T10:53:29.571Z,101369.22
2022-10-14T10:56:13.659Z,101365.25
2022-10-14T10:58:50.342Z,101363.50
2022-10-14T11:01:36.799Z,101353.97
2022-10-14T11:04:31.128Z,101361.56
2022-10-14T11:07:31.100Z,101358.31
2022-10-14T11:10:25.540Z,101222.97
2022-10-14T11:13:01.012Z,101353.03
2022-10-14T11:15:43.216Z,101349.56
2022-10-14T11:18:20.845Z,101346.09
2022-10-14T11:21:04.181Z,101345.34
2022-10-14T11:23:45.433Z,101348.94
2022-10-14T11:26:25.361Z,101343.41
2022-10-14T11:29:00.769Z,101348.06
2022-10-14T11:31:36.922Z,101348.97
2022-10-14T11:34:25.566Z,101349.41
2022-10-14T11:37:06.167Z,101337.53
2022-10-14T11:39:42.388Z,101333.38
2022-10-14T11:42:29.936Z,101320.00
2022-10-14T11:45:21.489Z,101304.09
2022-10-14T11:48:07.144Z,101309.91
2022-10-14T11:50:41.552Z,101305.19
2022-10-14T11:53:18.153Z,101294.16
2022-10-14T11:55:51.852Z,101294.59
2022-10-14T11:58:27.133Z,101285.88
2022-10-14T12:01:16.987Z,101285.09
2022-10-14T12:03:58.847Z,101290.53
2022-10-14T12:06:34.464Z,101286.78
2022-10-14T12:09:11.089Z,101286.78
2022-10-14T12:11:47.127Z,101295.97
2022-10-14T12:14:21.453Z,101299.97
2022-10-14T12:16:52.093Z,101304.56
2022-10-14T12:19:26.018Z,101302.50
2022-10-14T12:22:03.963Z,101301.03
2022-10-14T12:24:38.642Z,101266.66
2022-10-14T12:27:10.842Z,101270.09
2022-10-14T12:29:43.555Z,101282.13
2022-10-14T12:32:25.247Z,101289.66
2022-10-14T12:34:55.058Z,101240.00
2022-10-14T12:37:51.655Z,101292.00
2022-10-14T12:40:31.826Z,101278.41
2022-10-14T12:43:04.693Z,101280.53
2022-10-14T12:45:36.827Z,101270.94
2022-10-14T12:48:13.865Z,101259.13
2022-10-14T12:50:46.399Z,101240.31
2022-10-14T12:53:23.708Z,101267.22
2022-10-14T12:55:55.960Z,101264.97
2022-10-14T12:58:30.627Z,101253.94
2022-10-14T13:01:03.239Z,101247.88
2022-10-14T13:03:35.755Z,101248.75
2022-10-14T13:06:30.579Z,101246.63
2022-10-14T13:09:39.298Z,101243.09
2022-10-14T13:12:44.042Z,101242.66
2022-10-14T13:15:44.862Z,101232.41
2022-10-14T13:18:50.908Z,101239.72
2022-10-14T13:21:31.207Z,101245.59
2022-10-14T13:24:02.947Z,101242.47
2022-10-14T13:26:40.053Z,101229.88
2022-10-14T13:29:29.695Z,101234.69
2022-10-14T13:32:04.986Z,101227.59
2022-10-14T13:34:47.586Z,101231.34
2022-10-14T13:37:31.991Z,101223.59
2022-10-14T13:40:09.472Z,101215.63
2022-10-14T13:42:40.809Z,101217.53
2022-10-14T13:45:14.093Z,101214.59
2022-10-14T13:47:48.037Z,101222.13
2022-10-14T13:50:23.546Z,101226.34
2022-10-14T13:52:56.680Z,101233.66
2022-10-14T13:55:27.279Z,101150.91
2022-10-14T13:58:19.256Z,101228.63
2022-10-14T14:00:59.555Z,101147.97
2022-10-14T14:03:33.494Z,101238.06
2022-10-14T14:06:02.522Z,101208.31
2022-10-14T14:08:41.541Z,101225.69
2022-10-14T14:11:19.186Z,101218.13
2022-10-14T14:14:00.710Z,101219.19
2022-10-14T14:16:34.999Z,101207.44
2022-10-14T14:19:08.664Z,101212.25
2022-10-14T14:21:37.869Z,101219.38
2022-10-14T14:24:18.215Z,101196.34
2022-10-14T14:26:55.525Z,101222.31
2022-10-14T14:29:28.746Z,101226.72
2022-10-14T14:32:08.662Z,101221.28
2022-10-14T14:34:39.761Z,101226.28
2022-10-14T14:37:40.254Z,101224.81
2022-10-14T14:40:08.284Z,101235.09
2022-10-14T14:42:39.656Z,101230.50
2022-10-14T14:45:14.278Z,101223.16
2022-10-14T14:47:45.511Z,101225.47
2022-10-14T14:50:32.102Z,101224.63
2022-10-14T14:53:04.394Z,101225.25
2022-10-14T14:55:39.182Z,101222.31
2022-10-14T14:58:28.324Z,101220.00
2022-10-14T15:00:57.747Z,101216.44
2022-10-14T15:03:29.988Z,101211.63
2022-10-14T15:06:00.834Z,101215.81
2022-10-14T15:08:32.616Z,101214.38
2022-10-14T15:11:01.908Z,101219.63
2022-10-14T15:13:43.589Z,101217.75
2022-10-14T15:16:11.970Z,101221.28
2022-10-14T15:18:43.689Z,101223.59
2022-10-14T15:21:20.249Z,101214.78
2022-10-14T15:24:03.432Z,101210.41
2022-10-14T15:26:35.189Z,101217.94
2022-10-14T15:29:18.855Z,101187.78
2022-10-14T15:31:49.870Z,101220.47
2022-10-14T15:34:22.131Z,101220.69
2022-10-14T15:36:52.481Z,101208.50
2022-10-14T15:39:21.136Z,101222.56
2022-10-14T15:41:49.506Z,101215.00
2022-10-14T15:44:17.811Z,101219.19
2022-10-14T15:47:04.823Z,101213.91
2022-10-14T15:49:39.163Z,101216.84
2022-10-14T15:52:07.544Z,101222.47
2022-10-14T15:54:35.886Z,101225.41
2022-10-14T15:57:05.812Z,101226.88
2022-10-14T15:59:36.440Z,101226.22
2022-10-14T16:02:05.767Z,101223.91
2022-10-14T16:04:39.261Z,101230.81
2022-10-14T16:07:15.702Z,101213.44
2022-10-14T16:09:45.320Z,101220.34
2022-10-14T16:12:15.706Z,101220.31
2022-10-14T16:14:44.011Z,101211.50
2022-10-14T16:17:12.261Z,101223.41
2022-10-14T16:19:42.288Z,101221.50
2022-10-14T16:22:14.950Z,101218.47
2022-10-14T16:24:43.286Z,101211.75
2022-10-14T16:27:12.149Z,101205.44
2022-10-14T16:29:40.502Z,101209.50
2022-10-14T16:32:10.638Z,101206.38
2022-10-14T16:34:38.883Z,101205.25
2022-10-14T16:37:10.618Z,101205.38
2022-10-14T16:39:39.334Z,101173.44
2022-10-14T16:42:09.287Z,101192.69
2022-10-14T16:44:37.649Z,101204.38
2022-10-14T16:47:17.785Z,101199.53
2022-10-14T16:49:46.986Z,101202.00
2022-10-14T16:52:17.460Z,101200.94
2022-10-14T16:54:46.014Z,101203.59
2022-10-14T16:57:14.720Z,101203.31
2022-10-14T16:59:43.042Z,101205.78
2022-10-14T17:02:15.188Z,101205.72
2022-10-14T17:04:46.508Z,101200.63
2022-10-14T17:07:17.520Z,101206.00
2022-10-14T17:09:45.875Z,101203.19
2022-10-14T17:12:14.442Z,101206.91
2022-10-14T17:14:43.029Z,101210.19
2022-10-14T17:17:12.513Z,101211.59
2022-10-14T17:19:42.976Z,101216.72
2022-10-14T17:22:11.329Z,101212.63
2022-10-14T17:24:41.002Z,101218.88
2022-10-14T17:27:10.877Z,101222.19
2022-10-14T17:29:39.239Z,101228.19
2022-10-14T17:32:07.457Z,101230.16
2022-10-14T17:34:35.700Z,101228.13
2022-10-14T17:39:42.640Z,101227.38
2022-10-14T17:42:10.901Z,101225.22
2022-10-14T17:44:43.390Z,101230.81
2022-10-14T17:47:12.202Z,101235.97
2022-10-14T17:49:40.595Z,101226.44
2022-10-14T17:52:08.926Z,101225.88
2022-10-14T17:54:37.166Z,101229.66
2022-10-14T17:57:06.860Z,101216.22
2022-10-14T17:59:35.142Z,101218.16
2022-10-14T18:02:04.259Z,101227.19
2022-10-14T18:04:33.572Z,101225.03
2022-10-14T18:07:01.999Z,101226.16
2022-10-14T18:09:30.331Z,101178.94
2022-10-14T18:12:13.989Z,101228.53
2022-10-14T18:14:44.080Z,101224.38
2022-10-14T18:17:12.896Z,101230.00
2022-10-14T18:19:42.060Z,101231.38
2022-10-14T18:22:11.191Z,101237.34
2022-10-14T18:24:39.705Z,101229.75
2022-10-14T18:27:08.179Z,101232.47
2022-10-14T18:29:36.709Z,101226.75
2022-10-14T18:32:06.831Z,101228.47
2022-10-14T18:34:35.243Z,101226.47
2022-10-14T18:37:03.460Z,101216.25
2022-10-14T18:39:31.720Z,101219.81
2022-10-14T18:41:59.967Z,101233.16
2022-10-14T18:44:28.189Z,101235.03
2022-10-14T18:46:57.015Z,101238.41
2022-10-14T18:49:26.689Z,101244.81
2022-10-14T18:51:55.689Z,101240.13
2022-10-14T18:54:25.020Z,101236.22
2022-10-14T18:56:53.563Z,101241.44
2022-10-14T18:59:23.406Z,101245.56
2022-10-14T19:01:53.344Z,101243.22
2022-10-14T19:04:24.764Z,101236.13
2022-10-14T19:06:54.628Z,101236.81
2022-10-14T19:09:29.686Z,101233.75
2022-10-14T19:11:59.120Z,101239.84
2022-10-14T19:14:28.867Z,101236.31
2022-10-14T19:16:57.582Z,101229.41
2022-10-14T19:19:25.745Z,101222.69
2022-10-14T19:21:56.442Z,101225.53
2022-10-14T19:24:24.761Z,101227.03
2022-10-14T19:26:54.533Z,101234.16
2022-10-14T19:29:23.013Z,101230.44
2022-10-14T19:31:54.699Z,101233.97
2022-10-14T19:34:26.737Z,101238.53
2022-10-14T19:37:00.159Z,101230.09
2022-10-14T19:39:28.485Z,101226.38
2022-10-14T19:41:57.317Z,101225.88
2022-10-14T19:44:25.651Z,101233.13
2022-10-14T19:46:54.218Z,101230.59
2022-10-14T19:49:22.694Z,101226.22
2022-10-14T19:51:51.629Z,101229.75
2022-10-14T19:54:21.402Z,101239.56
2022-10-14T19:56:49.580Z,101237.03
2022-10-14T19:59:17.927Z,101242.59
2022-10-14T20:01:46.202Z,101234.84
2022-10-14T20:04:14.485Z,101238.75
2022-10-14T20:06:43.874Z,101243.66
2022-10-14T20:09:13.744Z,101237.94
2022-10-14T20:11:43.900Z,101243.66
2022-10-14T20:14:12.145Z,101241.47
2022-10-14T20:16:40.525Z,101246.00
2022-10-14T20:19:08.762Z,101247.03
2022-10-14T20:21:37.097Z,101246.53
2022-10-14T20:24:06.017Z,101240.16
2022-10-14T20:26:34.502Z,101241.84
2022-10-14T20:29:04.248Z,101243.88
2022-10-14T20:31:32.563Z,101250.78
2022-10-14T20:34:01.080Z,101235.28
2022-10-14T20:36:29.471Z,101246.06
2022-10-14T20:38:57.838Z,101250.16
2022-10-14T20:41:27.790Z,101221.66
2022-10-14T20:43:56.730Z,101251.16
2022-10-14T20:46:26.351Z,101252.16
2022-10-14T20:48:55.984Z,101248.44
2022-10-14T20:51:24.554Z,101248.13
2022-10-14T20:54:00.433Z,101243.75
2022-10-14T20:56:32.686Z,101244.41
2022-10-14T20:59:03.342Z,101256.53
2022-10-14T21:01:34.378Z,101263.25
2022-10-14T21:04:04.314Z,101261.91
2022-10-14T21:06:32.745Z,101247.69
2022-10-14T21:09:01.833Z,101258.13
2022-10-14T21:11:30.369Z,101272.63
2022-10-14T21:14:00.895Z,101264.19
2022-10-14T21:16:33.807Z,101265.53
2022-10-14T21:19:04.142Z,101227.06
2022-10-14T21:21:35.905Z,101262.00
2022-10-14T21:24:05.835Z,101236.72
2022-10-14T21:26:35.476Z,101271.28
2022-10-14T21:29:04.120Z,101266.53
2022-10-14T21:31:34.834Z,101239.56
2022-10-14T21:34:06.468Z,101263.31
2022-10-14T21:36:42.222Z,101265.69
2022-10-14T21:39:15.013Z,101263.84
2022-10-14T21:41:43.987Z,101258.78
2022-10-14T21:44:16.041Z,101263.31
2022-10-14T21:46:45.779Z,101259.13
2022-10-14T21:49:14.293Z,101260.28
2022-10-14T21:51:42.853Z,101252.69
2022-10-14T21:54:12.804Z,101248.63
2022-10-14T21:56:41.049Z,101249.09
2022-10-14T21:59:14.024Z,101247.25
2022-10-14T22:01:43.508Z,101246.41
2022-10-14T22:04:13.279Z,101243.72
2022-10-14T22:06:41.539Z,101241.66
2022-10-14T22:09:09.981Z,101239.63
2022-10-14T22:11:40.658Z,101236.72
2022-10-14T22:14:12.512Z,101235.38
2022-10-14T22:16:41.318Z,101194.22
2022-10-14T22:19:09.846Z,101227.41
2022-10-14T22:21:41.545Z,101185.38
2022-10-14T22:24:10.565Z,101228.91
2022-10-14T22:26:40.540Z,101208.13
2022-10-14T22:29:13.038Z,101214.34
2022-10-14T22:31:41.789Z,101209.44
2022-10-14T22:34:12.361Z,101212.91
2022-10-14T22:36:42.784Z,101207.81
2022-10-14T22:39:13.449Z,101208.13
2022-10-14T22:41:41.688Z,101207.06
2022-10-14T22:44:10.275Z,101202.69
2022-10-14T22:46:40.405Z,101194.94
2022-10-14T22:49:08.764Z,101193.25
2022-10-14T22:51:40.575Z,101192.19
2022-10-14T22:54:11.086Z,101196.19
2022-10-14T22:56:40.248Z,101190.66
2022-10-14T22:59:10.962Z,101204.16
2022-10-14T23:01:40.825Z,101204.00
2022-10-14T23:04:09.763Z,101203.47
2022-10-14T23:06:38.307Z,101203.25
2022-10-14T23:09:06.726Z,101198.53
2022-10-14T23:11:36.347Z,101192.38
2022-10-14T23:14:07.439Z,101189.00
2022-10-14T23:16:36.457Z,101201.22
2022-10-14T23:19:05.339Z,101176.16
2022-10-14T23:21:35.606Z,101199.16
2022-10-14T23:24:06.810Z,101202.38
2022-10-14T23:26:36.962Z,101197.53
2022-10-14T23:29:07.745Z,101194.16
2022-10-14T23:31:38.062Z,101195.44
2022-10-14T23:34:07.846Z,101192.53
2022-10-14T23:36:36.090Z,101197.84
2022-10-14T23:39:05.145Z,101175.97
2022-10-14T23:41:33.421Z,101197.94
2022-10-14T23:44:03.090Z,101201.94
2022-10-14T23:46:31.432Z,101197.47
2022-10-14T23:49:07.379Z,101196.25
2022-10-14T23:51:42.933Z,101173.75
2022-10-14T23:54:11.193Z,101200.78
2022-10-14T23:56:39.954Z,101201.78
2022-10-14T23:59:09.764Z,101207.00
